createdAt,value
2022-12-25T00:01:12.907Z,7.22
2022-12-25T00:03:39.683Z,7.34
2022-12-25T00:06:06.892Z,7.41
2022-12-25T00:08:34.161Z,7.34
2022-12-25T00:11:02.953Z,7.18
2022-12-25T00:13:29.676Z,7.21
2022-12-25T00:15:56.546Z,7.30
2022-12-25T00:18:24.337Z,7.31
2022-12-25T00:21:02.926Z,7.27
2022-12-25T00:23:29.936Z,7.19
2022-12-25T00:25:56.638Z,7.35
2022-12-25T00:28:24.389Z,7.42
2022-12-25T00:30:51.946Z,7.53
2022-12-25T00:33:18.399Z,7.63
2022-12-25T00:35:44.992Z,7.73
2022-12-25T00:38:11.449Z,7.64
2022-12-25T00:40:44.412Z,7.73
2022-12-25T00:43:11.136Z,7.92
2022-12-25T00:45:37.735Z,7.97
2022-12-25T00:48:04.408Z,8.02
2022-12-25T00:50:30.878Z,8.06
2022-12-25T00:52:57.324Z,8.09
2022-12-25T00:55:23.696Z,8.06
2022-12-25T00:57:50.056Z,8.14
2022-12-25T01:00:16.943Z,8.28
2022-12-25T01:02:43.551Z,8.39
2022-12-25T01:05:10.338Z,8.44
2022-12-25T01:07:36.765Z,8.52
2022-12-25T01:10:26.561Z,8.50
2022-12-25T01:12:53.041Z,8.39
2022-12-25T01:15:19.633Z,8.24
2022-12-25T01:17:46.531Z,8.18
2022-12-25T01:20:14.840Z,7.99
2022-12-25T01:22:41.549Z,8.00
2022-12-25T01:25:09.210Z,7.98
2022-12-25T01:27:35.721Z,7.96
2022-12-25T01:30:02.311Z,7.97
2022-12-25T01:32:28.722Z,7.99
2022-12-25T01:34:56.385Z,8.06
2022-12-25T01:37:24.741Z,8.09
2022-12-25T01:39:51.525Z,8.05
2022-12-25T01:42:20.442Z,8.11
2022-12-25T01:44:46.858Z,8.10
2022-12-25T01:47:15.755Z,8.06
2022-12-25T01:49:46.632Z,8.09
2022-12-25T01:52:21.791Z,8.09
2022-12-25T01:54:56.046Z,8.20
2022-12-25T01:57:27.213Z,8.32
2022-12-25T01:59:55.541Z,8.31
2022-12-25T02:02:22.431Z,8.44
2022-12-25T02:05:03.943Z,8.37
2022-12-25T02:07:35.075Z,7.80
2022-12-25T02:10:01.737Z,7.89
2022-12-25T02:12:31.226Z,8.04
2022-12-25T02:15:05.658Z,8.19
2022-12-25T02:17:57.735Z,8.40
2022-12-25T02:20:37.738Z,8.39
2022-12-25T02:23:11.827Z,8.26
2022-12-25T02:26:23.197Z,8.28
2022-12-25T02:29:22.031Z,8.30
2022-12-25T02:31:51.687Z,8.28
2022-12-25T02:34:25.807Z,8.22
2022-12-25T02:37:21.160Z,8.06
2022-12-25T02:40:00.524Z,8.19
2022-12-25T02:43:02.212Z,8.13
2022-12-25T02:46:02.924Z,8.15
2022-12-25T02:48:52.103Z,8.09
2022-12-25T02:51:40.079Z,8.06
2022-12-25T02:54:31.185Z,8.11
2022-12-25T02:57:18.200Z,8.20
2022-12-25T03:00:06.975Z,8.23
2022-12-25T03:02:52.807Z,8.31
2022-12-25T03:05:44.579Z,8.38
2022-12-25T03:08:16.374Z,8.44
2022-12-25T03:11:04.897Z,8.50
2022-12-25T03:13:38.029Z,8.52
2022-12-25T03:16:24.659Z,8.58
2022-12-25T03:18:51.127Z,8.54
2022-12-25T03:21:36.208Z,8.50
2022-12-25T03:24:20.924Z,8.55
2022-12-25T03:26:57.339Z,8.59
2022-12-25T03:29:49.125Z,8.66
2022-12-25T03:32:34.152Z,8.74
2022-12-25T03:35:44.264Z,8.78
2022-12-25T03:38:47.605Z,8.64
2022-12-25T03:41:41.797Z,8.79
2022-12-25T03:44:45.829Z,8.77
2022-12-25T03:47:51.662Z,8.56
2022-12-25T03:50:45.936Z,8.59
2022-12-25T03:53:42.821Z,8.64
2022-12-25T03:56:28.750Z,8.74
2022-12-25T03:59:22.838Z,8.69
2022-12-25T04:02:09.728Z,8.71
2022-12-25T04:04:55.081Z,8.46
2022-12-25T04:07:39.840Z,8.51
2022-12-25T04:10:25.434Z,8.64
2022-12-25T04:13:10.359Z,8.86
2022-12-25T04:15:55.140Z,8.80
2022-12-25T04:18:40.564Z,8.77
2022-12-25T04:21:25.772Z,8.69
2022-12-25T04:24:10.619Z,8.60
2022-12-25T04:26:55.589Z,8.63
2022-12-25T04:29:40.455Z,8.74
2022-12-25T04:32:25.258Z,8.70
2022-12-25T04:35:10.437Z,8.62
2022-12-25T04:37:36.918Z,8.46
2022-12-25T04:40:03.768Z,8.42
2022-12-25T04:42:30.269Z,8.41
2022-12-25T04:44:56.707Z,8.43
2022-12-25T04:47:23.151Z,8.47
2022-12-25T04:49:50.202Z,8.61
2022-12-25T04:52:16.820Z,8.66
2022-12-25T04:54:43.257Z,8.67
2022-12-25T04:57:09.675Z,8.70
2022-12-25T04:59:36.070Z,8.73
2022-12-25T05:02:02.732Z,8.74
2022-12-25T05:04:29.218Z,8.79
2022-12-25T05:06:55.648Z,8.87
2022-12-25T05:09:22.053Z,8.79
2022-12-25T05:11:48.472Z,8.82
2022-12-25T05:14:17.477Z,8.89
2022-12-25T05:16:44.283Z,8.85
2022-12-25T05:19:10.674Z,8.94
2022-12-25T05:21:37.141Z,8.95
2022-12-25T05:24:03.712Z,8.95
2022-12-25T05:26:30.332Z,8.95
2022-12-25T05:28:56.925Z,8.95
2022-12-25T05:31:23.482Z,8.92
2022-12-25T05:33:51.349Z,8.86
2022-12-25T05:36:18.664Z,8.91
2022-12-25T05:38:45.123Z,8.94
2022-12-25T05:41:11.821Z,8.93
2022-12-25T05:43:38.234Z,8.96
2022-12-25T05:46:09.901Z,8.94
2022-12-25T05:48:38.066Z,8.88
2022-12-25T05:51:10.148Z,8.99
2022-12-25T05:53:37.106Z,8.92
2022-12-25T05:56:06.056Z,8.89
2022-12-25T05:58:33.591Z,8.80
2022-12-25T06:01:00.447Z,8.72
2022-12-25T06:03:27.819Z,8.76
2022-12-25T06:05:54.833Z,8.77
2022-12-25T06:08:21.832Z,8.78
2022-12-25T06:10:48.261Z,8.87
2022-12-25T06:13:14.856Z,8.85
2022-12-25T06:15:41.962Z,8.81
2022-12-25T06:18:08.522Z,8.84
2022-12-25T06:20:34.990Z,8.87
2022-12-25T06:23:02.118Z,8.89
2022-12-25T06:25:28.715Z,8.92
2022-12-25T06:27:55.077Z,8.97
2022-12-25T06:30:21.546Z,8.96
2022-12-25T06:32:48.089Z,8.94
2022-12-25T06:35:14.609Z,8.89
2022-12-25T06:37:41.100Z,8.94
2022-12-25T06:40:08.137Z,8.92
2022-12-25T06:42:34.640Z,8.92
2022-12-25T06:45:01.134Z,8.93
2022-12-25T06:47:27.614Z,8.94
2022-12-25T06:49:54.035Z,8.93
2022-12-25T06:52:20.477Z,8.93
2022-12-25T06:54:47.444Z,9.00
2022-12-25T06:57:13.861Z,8.99
2022-12-25T06:59:40.296Z,9.05
2022-12-25T07:02:17.589Z,8.96
2022-12-25T07:04:44.627Z,8.68
2022-12-25T07:07:11.473Z,8.68
2022-12-25T07:09:42.429Z,8.68
2022-12-25T07:12:20.448Z,8.74
2022-12-25T07:14:50.788Z,8.76
2022-12-25T07:17:19.054Z,8.82
2022-12-25T07:19:48.680Z,8.92
2022-12-25T07:22:16.247Z,8.95
2022-12-25T07:24:42.903Z,8.94
2022-12-25T07:27:09.376Z,8.85
2022-12-25T07:29:35.895Z,8.81
2022-12-25T07:32:02.502Z,8.87
2022-12-25T07:34:28.926Z,8.75
2022-12-25T07:36:55.383Z,8.83
2022-12-25T07:39:21.943Z,8.87
2022-12-25T07:41:48.450Z,8.90
2022-12-25T07:44:15.976Z,8.90
2022-12-25T07:46:42.967Z,8.70
2022-12-25T07:49:10.117Z,8.76
2022-12-25T07:51:36.520Z,8.85
2022-12-25T07:54:03.049Z,8.81
2022-12-25T07:56:29.521Z,8.78
2022-12-25T07:58:55.983Z,9.04
2022-12-25T08:01:25.084Z,8.99
2022-12-25T08:03:59.794Z,8.99
2022-12-25T08:06:30.200Z,8.99
2022-12-25T08:09:08.962Z,8.85
2022-12-25T08:11:36.141Z,9.02
2022-12-25T08:14:05.920Z,9.22
2022-12-25T08:16:32.599Z,8.76
2022-12-25T08:18:59.097Z,9.01
2022-12-25T08:21:25.584Z,9.26
2022-12-25T08:23:51.956Z,9.21
2022-12-25T08:26:21.361Z,9.12
2022-12-25T08:28:48.591Z,9.34
2022-12-25T08:31:22.104Z,9.40
2022-12-25T08:33:50.271Z,9.52
2022-12-25T08:36:17.855Z,9.43
2022-12-25T08:38:44.390Z,9.66
2022-12-25T08:41:11.947Z,9.54
2022-12-25T08:43:39.391Z,9.51
2022-12-25T08:46:07.079Z,9.50
2022-12-25T08:48:34.565Z,9.78
2022-12-25T08:51:01.785Z,9.87
2022-12-25T08:53:28.295Z,9.76
2022-12-25T08:56:04.482Z,9.75
2022-12-25T08:58:31.274Z,9.41
2022-12-25T09:00:57.783Z,9.59
2022-12-25T09:03:24.369Z,9.30
2022-12-25T09:05:52.486Z,9.27
2022-12-25T09:08:19.916Z,9.45
2022-12-25T09:10:46.438Z,9.54
2022-12-25T09:13:12.941Z,9.79
2022-12-25T09:15:40.022Z,9.50
2022-12-25T09:18:06.759Z,9.64
2022-12-25T09:20:33.246Z,9.87
2022-12-25T09:22:59.781Z,9.66
2022-12-25T09:25:26.293Z,9.40
2022-12-25T09:27:52.730Z,9.45
2022-12-25T09:30:19.319Z,9.59
2022-12-25T09:32:45.739Z,9.62
2022-12-25T09:35:13.980Z,9.62
2022-12-25T09:37:40.439Z,9.86
2022-12-25T09:40:07.851Z,9.40
2022-12-25T09:42:34.523Z,9.31
2022-12-25T09:45:05.915Z,9.59
2022-12-25T09:47:35.862Z,9.63
2022-12-25T09:50:15.635Z,9.74
2022-12-25T09:52:46.228Z,9.49
2022-12-25T09:55:19.841Z,9.38
2022-12-25T09:57:52.392Z,9.53
2022-12-25T10:00:21.669Z,9.58
2022-12-25T10:02:51.183Z,9.42
2022-12-25T10:05:36.254Z,9.59
2022-12-25T10:08:28.798Z,9.37
2022-12-25T10:11:01.914Z,9.14
2022-12-25T10:14:03.191Z,9.04
2022-12-25T10:16:54.124Z,9.33
2022-12-25T10:19:42.089Z,9.36
2022-12-25T10:22:30.064Z,9.64
2022-12-25T10:24:59.818Z,9.99
2022-12-25T10:27:36.697Z,9.72
2022-12-25T10:30:16.606Z,9.58
2022-12-25T10:32:45.351Z,9.76
2022-12-25T10:35:18.904Z,9.00
2022-12-25T10:38:07.489Z,9.39
2022-12-25T10:40:46.873Z,9.46
2022-12-25T10:43:21.148Z,10.17
2022-12-25T10:45:49.431Z,9.41
2022-12-25T10:48:21.794Z,9.40
2022-12-25T10:50:49.090Z,9.93
2022-12-25T10:53:21.813Z,9.68
2022-12-25T10:56:00.629Z,9.63
2022-12-25T10:58:28.163Z,9.53
2022-12-25T11:00:58.209Z,9.40
2022-12-25T11:03:29.224Z,9.59
2022-12-25T11:05:56.179Z,9.50
2022-12-25T11:08:25.523Z,9.53
2022-12-25T11:10:57.590Z,9.42
2022-12-25T11:13:27.198Z,9.49
2022-12-25T11:16:35.257Z,9.98
2022-12-25T11:19:02.945Z,10.25
2022-12-25T11:21:36.733Z,9.92
2022-12-25T11:24:06.004Z,9.93
2022-12-25T11:26:46.885Z,9.82
2022-12-25T11:29:37.522Z,9.70
2022-12-25T11:32:11.493Z,9.63
2022-12-25T11:34:45.184Z,9.63
2022-12-25T11:37:17.528Z,9.74
2022-12-25T11:39:44.176Z,9.87
2022-12-25T11:42:33.056Z,9.98
2022-12-25T11:45:12.945Z,10.08
2022-12-25T11:47:48.513Z,10.11
2022-12-25T11:50:32.860Z,10.16
2022-12-25T11:53:21.890Z,10.08
2022-12-25T11:55:56.782Z,10.00
2022-12-25T11:58:44.615Z,10.17
2022-12-25T12:01:40.254Z,10.37
2022-12-25T12:04:14.380Z,10.17
2022-12-25T12:07:03.703Z,10.27
2022-12-25T12:09:48.451Z,10.45
2022-12-25T12:12:22.215Z,10.40
2022-12-25T12:15:00.659Z,10.69
2022-12-25T12:17:27.146Z,10.73
2022-12-25T12:19:53.609Z,10.68
2022-12-25T12:22:27.490Z,10.60
2022-12-25T12:25:06.966Z,10.52
2022-12-25T12:27:37.483Z,10.88
2022-12-25T12:30:05.932Z,10.73
2022-12-25T12:32:50.681Z,10.60
2022-12-25T12:35:25.745Z,10.50
2022-12-25T12:38:07.022Z,10.62
2022-12-25T12:40:44.481Z,10.64
2022-12-25T12:43:42.623Z,10.59
2022-12-25T12:46:28.051Z,10.70
2022-12-25T12:49:21.108Z,10.62
2022-12-25T12:51:48.198Z,10.64
2022-12-25T12:54:22.274Z,10.61
2022-12-25T12:56:57.998Z,10.57
2022-12-25T12:59:25.796Z,10.36
2022-12-25T13:02:27.318Z,10.26
2022-12-25T13:05:00.930Z,10.37
2022-12-25T13:07:44.748Z,10.36
2022-12-25T13:10:31.751Z,10.11
2022-12-25T13:13:02.950Z,10.18
2022-12-25T13:15:34.158Z,9.98
2022-12-25T13:18:07.177Z,10.16
2022-12-25T13:20:50.959Z,10.01
2022-12-25T13:23:30.740Z,10.01
2022-12-25T13:25:59.993Z,9.88
2022-12-25T13:28:37.400Z,9.79
2022-12-25T13:31:12.015Z,9.75
2022-12-25T13:33:40.250Z,9.93
2022-12-25T13:36:12.293Z,9.80
2022-12-25T13:38:44.561Z,9.96
2022-12-25T13:41:29.597Z,9.85
2022-12-25T13:43:59.329Z,9.85
2022-12-25T13:46:27.274Z,9.84
2022-12-25T13:49:01.443Z,9.85
2022-12-25T13:51:28.677Z,9.90
2022-12-25T13:54:05.559Z,9.95
2022-12-25T13:56:34.146Z,10.00
2022-12-25T13:59:00.799Z,10.09
2022-12-25T14:01:28.367Z,10.00
2022-12-25T14:03:55.161Z,10.12
2022-12-25T14:06:27.520Z,9.95
2022-12-25T14:08:58.873Z,9.84
2022-12-25T14:11:28.261Z,9.92
2022-12-25T14:13:59.870Z,10.09
2022-12-25T14:16:27.127Z,10.13
2022-12-25T14:18:58.756Z,10.05
2022-12-25T14:21:35.182Z,10.02
2022-12-25T14:24:02.071Z,10.11
2022-12-25T14:26:31.831Z,10.06
2022-12-25T14:29:17.263Z,9.96
2022-12-25T14:31:46.314Z,10.16
2022-12-25T14:34:22.611Z,10.24
2022-12-25T14:36:50.619Z,10.18
2022-12-25T14:39:29.605Z,10.25
2022-12-25T14:41:56.538Z,10.14
2022-12-25T14:44:40.546Z,10.34
2022-12-25T14:47:16.112Z,10.36
2022-12-25T14:49:43.101Z,10.44
2022-12-25T14:52:18.317Z,10.34
2022-12-25T14:55:02.196Z,10.22
2022-12-25T14:57:33.243Z,10.36
2022-12-25T15:00:03.844Z,10.39
2022-12-25T15:02:39.898Z,10.34
2022-12-25T15:05:23.788Z,10.40
2022-12-25T15:08:02.696Z,10.36
2022-12-25T15:10:59.140Z,10.45
2022-12-25T15:13:19.117Z,10.59
2022-12-25T15:16:04.149Z,10.52
2022-12-25T15:18:35.477Z,10.38
2022-12-25T15:21:02.570Z,10.49
2022-12-25T15:23:28.968Z,10.42
2022-12-25T15:25:55.436Z,10.39
2022-12-25T15:28:21.958Z,10.25
2022-12-25T15:30:49.781Z,10.36
2022-12-25T15:33:18.453Z,10.43
2022-12-25T15:35:45.467Z,10.33
2022-12-25T15:38:13.139Z,10.24
2022-12-25T15:40:40.592Z,10.17
2022-12-25T15:43:14.323Z,10.39
2022-12-25T15:45:47.451Z,10.41
2022-12-25T15:48:13.890Z,10.54
2022-12-25T15:50:40.318Z,10.70
2022-12-25T15:53:06.790Z,10.76
2022-12-25T15:55:34.190Z,10.83
2022-12-25T15:58:00.679Z,10.83
2022-12-25T16:00:27.329Z,10.81
2022-12-25T16:02:54.042Z,10.77
2022-12-25T16:05:21.923Z,10.71
2022-12-25T16:07:49.103Z,10.61
2022-12-25T16:10:18.447Z,10.77
2022-12-25T16:12:46.855Z,10.60
2022-12-25T16:15:15.495Z,10.53
2022-12-25T16:17:42.073Z,10.65
2022-12-25T16:20:09.552Z,10.73
2022-12-25T16:22:39.953Z,10.75
2022-12-25T16:25:15.690Z,10.81
2022-12-25T16:27:42.543Z,10.86
2022-12-25T16:30:11.618Z,10.84
2022-12-25T16:32:38.287Z,10.76
2022-12-25T16:35:05.225Z,10.88
2022-12-25T16:37:31.811Z,10.74
2022-12-25T16:39:58.213Z,10.90
2022-12-25T16:42:24.703Z,10.94
2022-12-25T16:44:51.147Z,10.93
2022-12-25T16:47:17.830Z,10.73
2022-12-25T16:49:44.340Z,10.88
2022-12-25T16:52:10.830Z,10.96
2022-12-25T16:54:37.293Z,10.79
2022-12-25T16:57:03.776Z,10.84
2022-12-25T16:59:30.289Z,11.01
2022-12-25T17:01:56.952Z,10.99
2022-12-25T17:04:23.553Z,11.10
2022-12-25T17:06:49.998Z,11.17
2022-12-25T17:09:16.709Z,11.16
2022-12-25T17:11:43.125Z,11.04
2022-12-25T17:14:10.733Z,11.02
2022-12-25T17:16:38.196Z,11.00
2022-12-25T17:19:12.037Z,11.15
2022-12-25T17:21:38.812Z,11.08
2022-12-25T17:24:05.778Z,10.87
2022-12-25T17:26:33.048Z,10.91
2022-12-25T17:28:59.928Z,11.00
2022-12-25T17:31:27.177Z,10.91
2022-12-25T17:33:53.774Z,10.88
2022-12-25T17:36:21.565Z,10.89
2022-12-25T17:38:48.616Z,10.96
2022-12-25T17:41:16.428Z,11.06
2022-12-25T17:43:45.508Z,10.94
2022-12-25T17:46:16.055Z,10.83
2022-12-25T17:48:43.205Z,10.98
2022-12-25T17:51:12.983Z,10.79
2022-12-25T17:53:41.542Z,10.71
2022-12-25T17:56:09.715Z,10.88
2022-12-25T17:58:37.161Z,10.95
2022-12-25T18:01:08.727Z,10.92
2022-12-25T18:03:36.754Z,10.83
2022-12-25T18:06:08.347Z,11.09
2022-12-25T18:08:39.337Z,11.36
2022-12-25T18:11:08.978Z,11.77
2022-12-25T18:13:35.894Z,11.92
2022-12-25T18:16:04.701Z,12.03
2022-12-25T18:18:31.756Z,12.11
2022-12-25T18:20:58.276Z,12.20
2022-12-25T18:23:24.799Z,12.07
2022-12-25T18:25:51.441Z,12.18
2022-12-25T18:28:17.878Z,12.09
2022-12-25T18:30:46.003Z,12.19
2022-12-25T18:33:12.906Z,12.31
2022-12-25T18:35:41.455Z,12.39
2022-12-25T18:38:09.289Z,12.36
2022-12-25T18:40:43.799Z,12.34
2022-12-25T18:43:10.821Z,12.35
2022-12-25T18:45:37.686Z,12.37
2022-12-25T18:48:06.404Z,12.54
2022-12-25T18:50:34.689Z,12.46
2022-12-25T18:53:01.986Z,12.42
2022-12-25T18:55:28.666Z,12.40
2022-12-25T18:57:55.697Z,12.40
2022-12-25T19:00:22.921Z,12.34
2022-12-25T19:02:50.257Z,12.35
2022-12-25T19:05:17.241Z,12.41
2022-12-25T19:07:43.817Z,12.32
2022-12-25T19:10:10.472Z,12.37
2022-12-25T19:12:37.087Z,12.33
2022-12-25T19:15:03.799Z,12.34
2022-12-25T19:17:32.114Z,12.34
2022-12-25T19:19:58.937Z,12.38
2022-12-25T19:22:25.375Z,12.33
2022-12-25T19:24:51.816Z,12.37
2022-12-25T19:27:18.288Z,12.42
2022-12-25T19:29:44.909Z,12.41
2022-12-25T19:32:11.331Z,12.33
2022-12-25T19:34:37.975Z,12.37
2022-12-25T19:37:04.853Z,12.26
2022-12-25T19:39:31.385Z,12.27
2022-12-25T19:41:58.005Z,12.20
2022-12-25T19:44:24.593Z,12.33
2022-12-25T19:46:50.984Z,12.35
2022-12-25T19:49:17.516Z,12.35
2022-12-25T19:51:46.203Z,12.35
2022-12-25T19:54:15.705Z,12.42
2022-12-25T19:56:43.155Z,12.32
2022-12-25T19:59:11.636Z,12.17
2022-12-25T20:01:39.038Z,12.17
2022-12-25T20:04:08.026Z,12.28
2022-12-25T20:06:35.926Z,12.15
2022-12-25T20:09:06.154Z,12.14
2022-12-25T20:11:34.090Z,12.12
2022-12-25T20:14:00.784Z,12.17
2022-12-25T20:16:27.610Z,12.15
2022-12-25T20:18:54.355Z,12.10
2022-12-25T20:21:22.308Z,12.15
2022-12-25T20:23:51.113Z,12.21
2022-12-25T20:26:19.920Z,12.18
2022-12-25T20:28:46.577Z,12.08
2022-12-25T20:31:22.527Z,12.12
2022-12-25T20:33:49.401Z,12.04
2022-12-25T20:36:16.412Z,11.87
2022-12-25T20:38:42.910Z,11.73
2022-12-25T20:41:30.736Z,11.72
2022-12-25T20:43:57.926Z,11.66
2022-12-25T20:46:25.954Z,11.60
2022-12-25T20:48:53.094Z,11.52
2022-12-25T20:51:22.667Z,11.70
2022-12-25T20:53:49.709Z,11.51
2022-12-25T20:56:18.221Z,11.40
2022-12-25T20:58:45.133Z,11.23
2022-12-25T21:01:17.501Z,11.23
2022-12-25T21:03:45.171Z,11.19
2022-12-25T21:06:12.811Z,11.16
2022-12-25T21:08:41.176Z,11.12
2022-12-25T21:11:08.577Z,11.14
2022-12-25T21:13:38.223Z,10.98
2022-12-25T21:16:07.166Z,10.97
2022-12-25T21:18:33.893Z,11.09
2022-12-25T21:21:05.425Z,11.08
2022-12-25T21:23:32.375Z,11.09
2022-12-25T21:25:58.834Z,11.11
2022-12-25T21:28:30.166Z,11.12
2022-12-25T21:31:05.632Z,11.08
2022-12-25T21:33:51.297Z,11.14
2022-12-25T21:36:32.201Z,11.09
2022-12-25T21:39:01.265Z,11.13
2022-12-25T21:41:29.675Z,11.16
2022-12-25T21:43:56.907Z,11.19
2022-12-25T21:46:24.337Z,11.13
2022-12-25T21:48:51.253Z,11.16
2022-12-25T21:51:45.519Z,11.21
2022-12-25T21:54:12.955Z,11.17
2022-12-25T21:56:44.565Z,11.15
2022-12-25T21:59:15.168Z,11.08
2022-12-25T22:01:41.762Z,11.09
2022-12-25T22:04:09.390Z,11.09
2022-12-25T22:06:54.507Z,11.11
2022-12-25T22:09:21.869Z,11.12
2022-12-25T22:12:07.548Z,11.13
2022-12-25T22:14:55.338Z,11.17
2022-12-25T22:17:47.187Z,11.19
2022-12-25T22:20:16.665Z,11.38
2022-12-25T22:22:44.090Z,11.33
2022-12-25T22:25:11.986Z,11.23
2022-12-25T22:27:39.894Z,11.27
2022-12-25T22:30:09.481Z,11.38
2022-12-25T22:32:38.643Z,11.34
2022-12-25T22:35:05.453Z,11.37
2022-12-25T22:37:32.047Z,11.39
2022-12-25T22:39:58.720Z,11.43
2022-12-25T22:42:25.166Z,11.52
2022-12-25T22:44:51.540Z,11.53
2022-12-25T22:47:18.210Z,11.42
2022-12-25T22:49:44.665Z,11.44
2022-12-25T22:52:11.246Z,11.42
2022-12-25T22:54:40.204Z,11.41
2022-12-25T22:57:09.878Z,11.38
2022-12-25T22:59:38.839Z,11.27
2022-12-25T23:02:05.382Z,11.37
2022-12-25T23:04:34.874Z,11.30
2022-12-25T23:07:06.449Z,11.34
2022-12-25T23:09:34.919Z,11.28
2022-12-25T23:12:06.907Z,11.35
2022-12-25T23:14:41.827Z,11.26
2022-12-25T23:17:31.830Z,11.35
2022-12-25T23:20:18.821Z,11.22
2022-12-25T23:23:05.405Z,11.16
2022-12-25T23:25:52.436Z,11.14
2022-12-25T23:28:38.956Z,11.15
2022-12-25T23:31:09.293Z,11.08
2022-12-25T23:33:35.749Z,11.04
2022-12-25T23:36:02.265Z,11.00
2022-12-25T23:38:28.958Z,11.08
2022-12-25T23:40:55.400Z,10.97
2022-12-25T23:43:21.859Z,10.97
2022-12-25T23:45:48.554Z,10.96
2022-12-25T23:48:15.406Z,10.99
2022-12-25T23:50:41.822Z,11.04
2022-12-25T23:53:10.090Z,11.11
2022-12-25T23:55:36.795Z,11.12
2022-12-25T23:58:04.272Z,11.11
